Time;durP1;ratioP1;P1;durP2;ratioP2;P2;SDS_P1;SDS_P2;PMS_P1;PMS_P2;Temp;Humidity;BMP_temperature;BMP_pressure;BME280_temperature;BME280_humidity;BME280_pressure;Samples;Min_cycle;Max_cycle;Signal;HPM_P1;HPM_P2
2022/04/11 00:00:56;;;;;;;17.00;16.30;;;;;;;4.14;93.66;101823.69;5034330;28;20802;-44
2022/04/11 00:03:25;;;;;;;17.40;16.40;;;;;;;4.17;92.94;101814.66;5034551;28;20490;-44
2022/04/11 00:05:52;;;;;;;16.73;15.83;;;;;;;4.14;94.04;101814.94;5034380;28;20436;-49
2022/04/11 00:08:20;;;;;;;17.80;16.80;;;;;;;4.10;94.25;101809.06;5033760;28;20464;-48
2022/04/11 00:10:48;;;;;;;16.60;16.00;;;;;;;4.04;94.60;101808.72;5033934;28;20436;-46
2022/04/11 00:13:15;;;;;;;17.70;16.70;;;;;;;3.97;94.87;101815.50;5033289;28;20436;-44
2022/04/11 00:15:44;;;;;;;17.60;16.90;;;;;;;3.91;94.99;101815.03;5016594;28;21253;-44
2022/04/11 00:18:12;;;;;;;16.33;15.83;;;;;;;3.83;95.54;101814.84;5017777;28;20468;-43
2022/04/11 00:20:40;;;;;;;16.90;16.13;;;;;;;3.75;95.75;101825.19;5016436;28;20429;-47
2022/04/11 00:23:08;;;;;;;16.57;15.90;;;;;;;3.66;95.72;101812.75;5017838;28;20437;-46
2022/04/11 00:25:37;;;;;;;16.53;15.80;;;;;;;3.58;96.26;101809.94;5016430;28;20439;-43
2022/04/11 00:28:05;;;;;;;17.10;16.40;;;;;;;3.52;96.01;101810.44;5017136;28;20460;-46
2022/04/11 00:30:33;;;;;;;16.30;15.70;;;;;;;3.47;95.71;101803.81;5017107;28;20444;-45
2022/04/11 00:33:00;;;;;;;17.33;16.30;;;;;;;3.41;95.85;101805.16;5017213;28;20429;-47
2022/04/11 00:35:29;;;;;;;16.20;15.60;;;;;;;3.35;95.92;101805.66;5017390;28;20434;-45
2022/04/11 00:37:57;;;;;;;16.03;15.40;;;;;;;3.30;95.56;101805.22;5024702;28;20486;-47
2022/04/11 00:40:24;;;;;;;15.50;14.80;;;;;;;3.23;95.79;101802.22;5033284;28;20531;-44
2022/04/11 00:42:52;;;;;;;16.50;15.50;;;;;;;3.19;95.84;101807.88;5033872;28;20511;-44
2022/04/11 00:45:20;;;;;;;16.53;15.53;;;;;;;3.15;95.69;101812.56;5030358;28;20428;-46
2022/04/11 00:47:47;;;;;;;16.83;16.07;;;;;;;3.11;95.46;101818.16;5024784;28;20443;-46
2022/04/11 00:50:15;;;;;;;15.77;15.07;;;;;;;3.08;95.48;101815.78;5033187;28;20428;-47
2022/04/11 00:52:48;;;;;;;16.70;15.90;;;;;;;3.04;95.32;101811.72;5033731;28;20770;-44
2022/04/11 00:55:18;;;;;;;17.37;16.73;;;;;;;3.01;95.64;101822.53;5033604;28;20431;-46
2022/04/11 00:57:47;;;;;;;16.53;15.63;;;;;;;2.99;95.20;101816.50;5032722;28;20480;-49
2022/04/11 01:00:16;;;;;;;16.13;15.43;;;;;;;2.97;94.84;101814.00;5033133;28;20432;-46
2022/04/11 01:02:43;;;;;;;16.50;15.80;;;;;;;2.99;93.98;101824.41;5033217;28;20432;-46
2022/04/11 01:05:13;;;;;;;16.13;15.00;;;;;;;3.01;93.44;101827.78;5033404;28;20436;-47
2022/04/11 01:07:41;;;;;;;15.70;15.00;;;;;;;3.00;93.08;101821.69;5033249;28;20487;-44
2022/04/11 01:10:11;;;;;;;16.47;15.30;;;;;;;3.03;92.64;101828.50;5032678;28;20468;-45
2022/04/11 01:12:38;;;;;;;15.90;15.07;;;;;;;3.03;92.55;101834.59;5032986;28;20515;-44
2022/04/11 01:15:07;;;;;;;15.87;14.90;;;;;;;3.04;92.59;101835.44;5032910;28;20440;-46
2022/04/11 01:17:35;;;;;;;16.43;15.70;;;;;;;3.03;92.40;101836.41;5032930;28;20487;-45
2022/04/11 01:20:07;;;;;;;15.90;15.20;;;;;;;3.00;92.63;101840.13;5032483;28;20460;-47
2022/04/11 01:22:36;;;;;;;16.43;15.30;;;;;;;2.98;92.88;101830.66;5032829;28;20482;-49
2022/04/11 01:25:04;;;;;;;15.20;14.50;;;;;;;2.93;92.86;101835.47;5032772;28;20490;-45
2022/04/11 01:27:32;;;;;;;16.07;15.27;;;;;;;2.90;93.05;101833.06;5032734;28;20822;-46
2022/04/11 01:30:00;;;;;;;16.37;15.23;;;;;;;2.89;92.22;101840.13;5032181;28;20460;-46
2022/04/11 01:32:28;;;;;;;15.70;15.00;;;;;;;2.89;91.77;101839.28;5032409;28;20963;-46
2022/04/11 01:34:56;;;;;;;16.13;15.23;;;;;;;2.88;91.93;101834.97;5032808;28;20441;-44
2022/04/11 01:37:24;;;;;;;17.00;16.17;;;;;;;2.86;92.34;101844.81;5032491;28;20476;-46
2022/04/11 01:39:53;;;;;;;15.57;14.90;;;;;;;2.85;91.75;101841.31;5032411;28;20459;-49
2022/04/11 01:42:21;;;;;;;15.80;15.30;;;;;;;2.84;92.41;101844.09;5032522;28;20797;-46
2022/04/11 01:44:48;;;;;;;16.70;16.10;;;;;;;2.82;92.81;101840.72;5032776;28;20432;-48
2022/04/11 01:47:16;;;;;;;17.57;16.33;;;;;;;2.77;92.72;101839.31;5032518;28;20456;-48
2022/04/11 01:49:45;;;;;;;15.47;14.87;;;;;;;2.76;92.75;101839.41;5032011;28;20460;-44
2022/04/11 01:52:13;;;;;;;15.40;14.90;;;;;;;2.73;92.76;101842.28;5031999;28;20538;-46
2022/04/11 01:54:41;;;;;;;16.27;15.47;;;;;;;2.70;92.54;101838.09;5032267;28;20455;-45
2022/04/11 01:57:30;;;;;;;16.73;15.97;;;;;;;2.68;92.28;101837.38;5031996;28;20464;-44
2022/04/11 01:59:58;;;;;;;15.80;15.20;;;;;;;2.65;92.54;101832.34;5031301;28;20468;-44
2022/04/11 02:02:26;;;;;;;15.63;15.13;;;;;;;2.62;92.34;101835.22;5032190;28;20864;-44
2022/04/11 02:04:54;;;;;;;14.80;14.30;;;;;;;2.59;92.54;101838.09;5032209;28;20531;-43
2022/04/11 02:07:22;;;;;;;15.10;14.50;;;;;;;2.55;92.66;101834.00;5031912;28;20448;-47
2022/04/11 02:09:49;;;;;;;15.70;14.77;;;;;;;2.50;93.19;101827.44;5031699;28;20464;-46
2022/04/11 02:12:17;;;;;;;17.60;16.77;;;;;;;2.44;93.09;101822.63;5031883;28;20432;-46
2022/04/11 02:14:45;;;;;;;15.43;14.63;;;;;;;2.40;93.56;101826.44;5031911;28;20945;-45
2022/04/11 02:17:13;;;;;;;15.03;14.10;;;;;;;2.36;93.15;101823.19;5031850;28;20452;-46
2022/04/11 02:19:41;;;;;;;15.10;14.40;;;;;;;2.34;92.57;101827.75;5031399;28;20471;-46
2022/04/11 02:22:08;;;;;;;14.93;14.13;;;;;;;2.30;93.26;101833.38;5031642;28;20431;-46
2022/04/11 02:24:36;;;;;;;14.00;13.40;;;;;;;2.26;93.31;101827.50;5032039;28;20436;-49
2022/04/11 02:27:04;;;;;;;14.70;14.00;;;;;;;2.22;93.34;101833.94;5031853;28;20455;-46
2022/04/11 02:29:32;;;;;;;15.60;14.43;;;;;;;2.20;93.02;101830.59;5031392;28;20464;-46
2022/04/11 02:32:01;;;;;;;14.27;13.33;;;;;;;2.20;92.44;101831.44;5031668;28;20432;-46
2022/04/11 02:34:30;;;;;;;15.23;14.23;;;;;;;2.21;92.81;101832.28;5031767;28;20436;-44
2022/04/11 02:36:58;;;;;;;14.50;13.90;;;;;;;2.21;92.19;101834.94;5031608;28;20459;-46
2022/04/11 02:39:25;;;;;;;15.07;14.37;;;;;;;2.24;92.03;101842.56;5031237;28;20470;-46
2022/04/11 02:41:53;;;;;;;14.20;13.20;;;;;;;2.26;91.65;101842.47;5031471;28;20438;-45
2022/04/11 02:44:20;;;;;;;13.53;12.93;;;;;;;2.28;92.06;101843.16;5031664;28;20436;-51
2022/04/11 02:46:48;;;;;;;14.20;13.40;;;;;;;2.29;91.85;101840.44;5019943;28;20455;-44
2022/04/11 02:49:17;;;;;;;14.57;13.63;;;;;;;2.31;91.42;101841.16;5012300;28;20477;-50
2022/04/11 02:51:44;;;;;;;14.83;13.77;;;;;;;2.31;92.05;101843.78;5011862;28;20437;-46
2022/04/11 02:54:12;;;;;;;15.17;13.97;;;;;;;2.33;91.01;101847.13;5012000;28;20799;-47
2022/04/11 02:56:40;;;;;;;16.90;15.27;;;;;;;2.36;90.10;101846.91;5011598;28;20788;-44
2022/04/11 02:59:07;;;;;;;16.20;15.30;;;;;;;2.40;90.02;101850.13;5012751;28;20473;-45
2022/04/11 03:01:35;;;;;;;16.20;15.10;;;;;;;2.42;89.81;101838.53;5013145;28;20433;-47
2022/04/11 03:04:03;;;;;;;15.07;14.37;;;;;;;2.46;89.12;101847.88;5013742;28;20439;-45
2022/04/11 03:06:31;;;;;;;15.27;14.57;;;;;;;2.49;89.26;101841.53;5013234;28;20433;-45
2022/04/11 03:08:59;;;;;;;16.27;15.30;;;;;;;2.51;89.47;101845.72;5013000;28;20464;-44
2022/04/11 03:11:27;;;;;;;15.90;15.13;;;;;;;2.54;89.42;101847.31;5013105;28;20433;-44
2022/04/11 03:13:54;;;;;;;15.60;14.77;;;;;;;2.56;90.01;101845.38;5016193;28;20436;-45
2022/04/11 03:16:22;;;;;;;15.77;15.07;;;;;;;2.57;89.52;101842.63;5028327;28;20428;-46
2022/04/11 03:18:49;;;;;;;17.20;16.23;;;;;;;2.59;89.61;101843.34;5036975;28;20892;-44
2022/04/11 03:21:17;;;;;;;16.40;15.60;;;;;;;2.61;88.85;101845.84;5036252;28;20951;-45
2022/04/11 03:23:46;;;;;;;17.03;16.07;;;;;;;2.64;89.09;101837.72;5036700;28;20833;-45
2022/04/11 03:26:14;;;;;;;18.70;17.53;;;;;;;2.66;88.77;101836.63;5036004;28;20446;-47
2022/04/11 03:28:41;;;;;;;17.67;16.87;;;;;;;2.65;89.16;101840.25;5035669;28;21000;-45
2022/04/11 03:31:09;;;;;;;16.83;16.00;;;;;;;2.65;89.23;101845.53;5036239;28;20455;-44
2022/04/11 03:33:37;;;;;;;17.00;16.20;;;;;;;2.62;89.58;101851.03;5035949;28;20945;-46
2022/04/11 03:36:06;;;;;;;16.80;15.57;;;;;;;2.60;89.77;101849.44;5035792;28;20432;-47
2022/04/11 03:38:33;;;;;;;18.47;17.27;;;;;;;2.55;90.33;101848.97;5035324;28;20484;-45
2022/04/11 03:41:02;;;;;;;17.23;16.10;;;;;;;2.48;90.67;101843.31;5035125;28;20427;-47
2022/04/11 03:43:30;;;;;;;17.57;16.37;;;;;;;2.45;91.18;101848.00;5035450;28;20435;-46
2022/04/11 03:45:58;;;;;;;16.23;15.40;;;;;;;2.39;90.64;101844.03;5031883;28;20433;-45
2022/04/11 03:48:26;;;;;;;17.07;15.90;;;;;;;2.34;90.99;101854.09;5027171;28;20455;-47
2022/04/11 03:50:53;;;;;;;17.63;16.73;;;;;;;2.29;91.45;101845.69;5035235;28;20431;-46
2022/04/11 03:53:22;;;;;;;16.73;15.70;;;;;;;2.22;92.05;101842.69;5035477;28;20444;-47
2022/04/11 03:55:49;;;;;;;16.40;15.30;;;;;;;2.17;92.23;101849.25;5035198;28;20432;-48
2022/04/11 03:58:18;;;;;;;16.90;15.80;;;;;;;2.12;91.62;101849.59;5034652;28;20999;-47
2022/04/11 04:00:46;;;;;;;18.73;17.63;;;;;;;2.10;91.63;101850.66;5034863;28;20476;-46
2022/04/11 04:03:15;;;;;;;17.53;16.73;;;;;;;2.04;92.01;101851.13;5035382;28;20435;-45
2022/04/11 04:05:43;;;;;;;18.73;17.20;;;;;;;2.00;92.29;101850.50;5035160;28;20424;-45
2022/04/11 04:08:12;;;;;;;17.20;16.30;;;;;;;1.96;92.18;101846.44;5034657;28;20826;-45
2022/04/11 04:10:40;;;;;;;18.13;16.93;;;;;;;1.93;91.65;101849.31;5035202;28;20435;-45
2022/04/11 04:13:08;;;;;;;16.23;15.43;;;;;;;1.93;91.31;101853.72;5035620;28;20428;-45
2022/04/11 04:15:37;;;;;;;17.77;16.77;;;;;;;1.89;91.72;101855.75;5035984;28;20440;-44
2022/04/11 04:18:05;;;;;;;17.63;16.70;;;;;;;1.84;92.59;101863.13;5034869;28;20547;-44
2022/04/11 04:20:33;;;;;;;17.50;16.40;;;;;;;1.79;93.39;101852.13;5034910;28;20486;-45
2022/04/11 04:23:01;;;;;;;19.20;17.93;;;;;;;1.75;93.46;101860.34;5034839;28;20926;-45
2022/04/11 04:25:28;;;;;;;17.47;16.33;;;;;;;1.72;93.10;101860.56;5035291;28;20538;-45
2022/04/11 04:27:56;;;;;;;18.63;17.50;;;;;;;1.70;92.43;101858.06;5034832;28;20452;-44
2022/04/11 04:30:24;;;;;;;18.57;17.53;;;;;;;1.68;92.52;101863.41;5034590;28;20428;-43
2022/04/11 04:32:53;;;;;;;20.57;19.07;;;;;;;1.67;92.54;101856.47;5034908;28;20428;-44
2022/04/11 04:35:20;;;;;;;18.67;17.77;;;;;;;1.66;92.53;101870.59;5034495;28;20531;-44
2022/04/11 04:37:48;;;;;;;19.03;17.63;;;;;;;1.67;91.65;101861.72;5034589;28;20463;-44
2022/04/11 04:40:16;;;;;;;18.87;17.63;;;;;;;1.66;91.69;101867.97;5034707;28;20479;-46
2022/04/11 04:42:43;;;;;;;18.30;17.10;;;;;;;1.65;92.45;101866.28;5034818;28;20433;-44
2022/04/11 04:45:12;;;;;;;19.27;17.73;;;;;;;1.66;92.29;101869.75;5031588;28;20444;-45
2022/04/11 04:47:40;;;;;;;17.87;16.37;;;;;;;1.67;91.84;101874.06;5026261;28;21087;-45
2022/04/11 04:50:10;;;;;;;18.67;17.27;;;;;;;1.65;92.27;101871.53;5034595;28;20467;-44
2022/04/11 04:52:39;;;;;;;16.53;15.63;;;;;;;1.64;92.66;101876.91;5035450;28;20432;-44
2022/04/11 04:55:07;;;;;;;17.70;16.50;;;;;;;1.61;92.83;101867.44;5034599;28;20432;-45
2022/04/11 04:57:35;;;;;;;18.50;17.40;;;;;;;1.62;93.17;101876.16;5035018;28;20467;-45
2022/04/11 05:00:04;;;;;;;17.43;15.40;;;;;;;1.66;92.18;101875.00;5034230;28;20472;-46
2022/04/11 05:02:36;;;;;;;17.43;16.23;;;;;;;1.80;90.49;101876.59;5034540;28;20436;-45
2022/04/11 05:05:09;;;;;;;14.80;13.90;;;;;;;2.21;84.32;101879.66;5034778;28;20494;-45
2022/04/11 05:07:37;;;;;;;15.00;13.47;;;;;;;2.85;75.40;101872.09;5034530;28;20968;-45
2022/04/11 05:10:10;;;;;;;16.63;15.33;;;;;;;2.98;82.46;101871.03;5033694;28;20806;-46
2022/04/11 05:12:39;;;;;;;15.73;14.70;;;;;;;3.35;82.21;101876.84;5034242;28;20436;-45
2022/04/11 05:15:07;;;;;;;14.83;13.40;;;;;;;3.87;81.63;101873.47;5034626;28;20440;-44
2022/04/11 05:17:35;;;;;;;13.67;11.73;;;;;;;4.82;64.63;101880.38;5034288;28;20452;-47
2022/04/11 05:20:04;;;;;;;12.77;11.60;;;;;;;5.26;75.67;101882.63;5033364;28;20679;-46
2022/04/11 05:22:33;;;;;;;10.00;9.00;;;;;;;6.27;69.74;101877.94;5033424;28;20443;-46
2022/04/11 05:25:01;;;;;;;10.63;8.90;;;;;;;7.33;61.09;101880.22;5033562;28;20809;-44
2022/04/11 05:27:28;;;;;;;9.50;8.03;;;;;;;8.26;62.58;101878.84;5033165;28;20464;-46
2022/04/11 05:29:56;;;;;;;8.97;8.30;;;;;;;8.18;96.04;101881.41;5032930;28;20829;-44
2022/04/11 05:32:23;;;;;;;9.70;9.10;;;;;;;8.15;100.00;101875.59;5033055;28;20428;-46
2022/04/11 05:34:51;;;;;;;10.20;9.80;;;;;;;7.73;100.00;101883.34;5032371;28;20436;-44
2022/04/11 05:37:19;;;;;;;11.73;11.03;;;;;;;7.33;100.00;101882.88;5033242;28;20452;-45
2022/04/11 05:39:48;;;;;;;11.57;10.97;;;;;;;7.03;100.00;101884.84;5032382;28;20483;-45
2022/04/11 05:42:15;;;;;;;12.03;11.20;;;;;;;6.84;100.00;101884.88;5033287;28;20439;-47
2022/04/11 05:44:43;;;;;;;12.77;12.00;;;;;;;6.77;100.00;101881.16;5032050;28;20466;-44
2022/04/11 05:47:12;;;;;;;11.23;10.50;;;;;;;7.26;100.00;101897.72;5023727;28;20471;-45
2022/04/11 05:49:39;;;;;;;10.90;10.00;;;;;;;7.68;100.00;101893.56;5032647;28;20463;-45
2022/04/11 05:52:08;;;;;;;10.23;9.67;;;;;;;7.93;100.00;101892.00;5033071;28;20440;-45
2022/04/11 05:54:38;;;;;;;9.97;9.33;;;;;;;8.51;100.00;101892.38;5032632;28;20436;-46
2022/04/11 05:57:07;;;;;;;9.47;8.70;;;;;;;9.65;100.00;101897.25;5033195;28;20456;-45
2022/04/11 05:59:35;;;;;;;8.70;8.17;;;;;;;10.71;100.00;101901.69;5032398;28;20455;-45
2022/04/11 06:02:03;;;;;;;7.50;7.10;;;;;;;11.47;100.00;101894.75;5032599;28;20454;-45
2022/04/11 06:04:30;;;;;;;9.30;8.90;;;;;;;12.19;96.46;101904.19;5032512;28;20440;-46
2022/04/11 06:06:58;;;;;;;9.57;8.67;;;;;;;12.99;94.86;101907.13;5032325;28;20448;-45
2022/04/11 06:09:26;;;;;;;11.60;8.80;;;;;;;13.36;78.55;101902.72;5032299;28;20460;-46
2022/04/11 06:11:53;;;;;;;11.30;10.70;;;;;;;12.78;77.81;101905.16;5032715;28;20435;-46
2022/04/11 06:14:22;;;;;;;10.63;9.70;;;;;;;13.23;75.33;101908.75;5032447;28;20432;-45
2022/04/11 06:16:50;;;;;;;12.67;11.77;;;;;;;12.81;75.21;101914.69;5032505;28;20456;-48
2022/04/11 06:19:18;;;;;;;12.07;11.60;;;;;;;12.14;72.70;101921.78;5032015;28;20864;-46
2022/04/11 06:21:45;;;;;;;11.50;10.80;;;;;;;11.75;74.42;101927.22;5032142;28;20476;-45
2022/04/11 06:24:13;;;;;;;11.70;11.00;;;;;;;11.27;73.11;101930.91;5032352;28;20442;-46
2022/04/11 06:26:40;;;;;;;13.17;12.53;;;;;;;10.90;76.48;101931.47;5032278;28;20443;-46
2022/04/11 06:29:08;;;;;;;12.63;12.03;;;;;;;10.64;77.67;101932.69;5031898;28;20464;-45
2022/04/11 06:31:37;;;;;;;12.67;11.97;;;;;;;10.50;80.36;101929.72;5032049;28;20438;-45
2022/04/11 06:34:05;;;;;;;11.80;11.20;;;;;;;11.33;87.95;101927.53;5032179;28;20442;-45
2022/04/11 06:36:32;;;;;;;11.60;11.07;;;;;;;12.09;89.16;101924.16;5032424;28;20436;-45
2022/04/11 06:39:00;;;;;;;12.90;12.13;;;;;;;12.81;87.35;101924.56;5031653;28;20834;-45
2022/04/11 06:41:29;;;;;;;12.37;11.80;;;;;;;13.32;85.18;101936.28;5032011;28;20552;-46
2022/04/11 06:43:57;;;;;;;12.80;12.07;;;;;;;13.68;74.92;101929.91;5032194;28;20432;-45
2022/04/11 06:46:24;;;;;;;12.83;12.03;;;;;;;14.09;69.69;101924.81;5033158;28;20984;-49
2022/04/11 06:48:53;;;;;;;12.80;12.10;;;;;;;14.65;74.56;101933.00;5035872;28;20474;-45
2022/04/11 06:51:21;;;;;;;12.50;11.70;;;;;;;15.09;71.54;101938.91;5036099;28;20428;-46
2022/04/11 06:53:50;;;;;;;12.70;11.87;;;;;;;15.41;68.50;101930.19;5036276;28;20462;-45
2022/04/11 06:56:17;;;;;;;11.33;10.87;;;;;;;15.66;69.64;101933.22;5035970;28;20531;-45
2022/04/11 06:58:45;;;;;;;12.50;11.90;;;;;;;15.83;67.35;101939.91;5035463;28;20471;-46
2022/04/11 07:01:12;;;;;;;12.77;12.00;;;;;;;15.96;68.57;101944.50;5036056;28;20569;-46
2022/04/11 07:03:40;;;;;;;13.07;12.27;;;;;;;16.00;65.18;101943.06;5035899;28;20530;-45
2022/04/11 07:06:10;;;;;;;13.13;12.43;;;;;;;15.69;60.32;101945.44;5035955;28;20538;-47
2022/04/11 07:08:38;;;;;;;12.63;12.03;;;;;;;15.95;67.12;101945.53;5035506;28;20459;-46
2022/04/11 07:11:06;;;;;;;13.47;12.70;;;;;;;16.01;67.34;101945.53;5035633;28;20450;-48
2022/04/11 07:13:35;;;;;;;12.17;11.47;;;;;;;15.84;63.81;101946.13;5035562;28;20440;-48
2022/04/11 07:16:03;;;;;;;13.87;12.87;;;;;;;15.41;61.31;101942.81;5035615;28;20439;-46
2022/04/11 07:18:33;;;;;;;12.30;11.70;;;;;;;15.18;61.15;101940.41;5035400;28;20455;-45
2022/04/11 07:21:01;;;;;;;12.53;11.73;;;;;;;14.57;57.13;101943.88;5035279;28;20477;-45
2022/04/11 07:23:30;;;;;;;12.50;11.90;;;;;;;14.54;63.24;101953.16;5035319;28;20432;-45
2022/04/11 07:25:58;;;;;;;13.27;12.63;;;;;;;13.98;57.14;101959.38;5035407;28;20546;-44
2022/04/11 07:28:26;;;;;;;13.93;13.00;;;;;;;13.21;57.04;101951.78;5035222;28;20558;-46
2022/04/11 07:30:53;;;;;;;12.53;12.00;;;;;;;12.89;59.87;101943.22;5035351;28;20428;-44
2022/04/11 07:33:21;;;;;;;11.43;10.93;;;;;;;11.41;55.17;101950.72;5035441;28;20841;-44
2022/04/11 07:35:49;;;;;;;11.50;10.80;;;;;;;11.24;61.11;101941.09;5035523;28;20436;-45
2022/04/11 07:38:16;;;;;;;11.63;10.60;;;;;;;11.45;64.02;101952.88;5035453;28;20460;-44
2022/04/11 07:40:49;;;;;;;11.23;10.63;;;;;;;11.62;66.28;101943.78;5035805;28;20811;-44
2022/04/11 07:43:17;;;;;;;9.77;9.17;;;;;;;10.45;60.49;101948.03;5035994;28;20442;-46
2022/04/11 07:45:45;;;;;;;10.23;9.70;;;;;;;10.14;64.44;101951.50;5032695;28;20806;-44
2022/04/11 07:48:12;;;;;;;10.00;9.00;;;;;;;9.24;63.65;101947.69;5027148;28;20496;-44
2022/04/11 07:50:40;;;;;;;10.57;10.00;;;;;;;9.25;67.04;101948.53;5035698;28;20980;-44
2022/04/11 07:53:07;;;;;;;9.70;9.10;;;;;;;9.13;66.76;101947.13;5035969;28;20436;-46
2022/04/11 07:55:35;;;;;;;9.20;8.70;;;;;;;8.97;66.64;101955.84;5036349;28;20436;-44
2022/04/11 07:58:04;;;;;;;9.87;8.90;;;;;;;8.48;64.33;101945.84;5034735;28;20470;-44
2022/04/11 08:00:32;;;;;;;8.67;8.30;;;;;;;8.73;66.79;101951.19;5035953;28;20436;-45
2022/04/11 08:03:00;;;;;;;9.17;8.53;;;;;;;8.81;63.99;101953.91;5035027;28;20468;-46
2022/04/11 08:05:27;;;;;;;9.30;8.80;;;;;;;9.17;65.17;101959.13;5035133;28;20482;-46
2022/04/11 08:07:55;;;;;;;9.57;9.07;;;;;;;9.14;64.16;101962.13;5034609;28;20460;-45
2022/04/11 08:10:23;;;;;;;9.27;8.50;;;;;;;9.19;63.11;101943.84;5035075;28;20531;-44
2022/04/11 08:12:52;;;;;;;9.07;8.57;;;;;;;8.79;62.57;101950.56;5035804;28;20432;-44
2022/04/11 08:15:21;;;;;;;7.83;7.30;;;;;;;9.01;62.12;101951.88;5036156;28;20432;-44
2022/04/11 08:17:49;;;;;;;8.60;8.30;;;;;;;9.26;62.51;101950.16;5035296;28;20500;-44
2022/04/11 08:20:17;;;;;;;5.77;5.47;;;;;;;8.95;60.10;101944.53;5035483;28;20442;-44
2022/04/11 08:22:45;;;;;;;7.13;6.53;;;;;;;9.47;65.16;101937.28;5035503;28;20988;-44
2022/04/11 08:25:14;;;;;;;6.77;6.17;;;;;;;10.01;64.39;101944.78;5035851;28;20432;-44
2022/04/11 08:27:42;;;;;;;7.50;6.67;;;;;;;10.15;59.65;101937.19;5035955;28;20456;-45
2022/04/11 08:30:10;;;;;;;6.37;6.17;;;;;;;9.33;56.80;101936.09;5034840;28;20460;-45
2022/04/11 08:32:40;;;;;;;6.30;5.97;;;;;;;9.06;58.64;101946.06;5035385;28;20440;-44
2022/04/11 08:35:09;;;;;;;5.90;5.60;;;;;;;9.00;58.74;101950.19;5035506;28;20468;-44
2022/04/11 08:37:40;;;;;;;6.80;6.30;;;;;;;9.32;60.26;101945.06;5035103;28;20456;-44
2022/04/11 08:40:10;;;;;;;7.30;6.70;;;;;;;9.81;64.20;101942.59;5034862;28;20495;-44
2022/04/11 08:42:39;;;;;;;7.13;6.80;;;;;;;10.02;64.04;101946.47;5035062;28;20476;-44
2022/04/11 08:45:13;;;;;;;6.63;6.23;;;;;;;10.33;62.27;101936.06;5031264;28;20524;-44
2022/04/11 08:47:42;;;;;;;5.93;5.60;;;;;;;10.46;60.88;101939.03;5026595;28;20471;-44
2022/04/11 08:50:11;;;;;;;6.50;6.20;;;;;;;9.34;57.95;101944.91;5034711;28;20444;-46
2022/04/11 08:52:40;;;;;;;6.00;5.70;;;;;;;8.99;59.41;101953.84;5034820;28;20438;-46
2022/04/11 08:55:09;;;;;;;5.70;5.40;;;;;;;8.38;59.16;101955.72;5034623;28;20444;-44
2022/04/11 09:00:16;;;;;;;5.97;5.33;;;;;;;8.31;61.14;101961.63;5043236;28;20476;-47
2022/04/11 09:02:45;;;;;;;5.90;4.67;;;;;;;9.00;61.65;101962.66;5053223;28;20475;-45
2022/04/11 09:05:20;;;;;;;5.57;5.27;;;;;;;9.72;61.14;101962.19;5053355;28;20532;-45
2022/04/11 09:07:50;;;;;;;5.10;4.80;;;;;;;9.61;56.95;101965.16;5052655;28;20438;-48
2022/04/11 09:10:19;;;;;;;5.60;5.20;;;;;;;9.80;56.61;101956.88;5051739;28;20485;-48
2022/04/11 09:12:49;;;;;;;4.87;4.57;;;;;;;9.68;57.07;101968.81;5053158;28;20510;-47
2022/04/11 09:15:17;;;;;;;4.43;4.33;;;;;;;9.29;58.14;101958.69;5053210;28;20431;-47
2022/04/11 09:17:47;;;;;;;5.37;5.07;;;;;;;9.85;59.68;101949.25;5052866;28;20435;-46
2022/04/11 09:20:16;;;;;;;5.23;4.73;;;;;;;10.29;59.32;101950.72;5052452;28;20439;-45
2022/04/11 09:22:44;;;;;;;7.63;5.23;;;;;;;10.71;54.33;101952.38;5052657;28;20471;-49
2022/04/11 09:25:14;;;;;;;5.27;4.87;;;;;;;10.70;53.31;101948.88;5053006;28;20800;-45
2022/04/11 09:27:42;;;;;;;5.70;5.30;;;;;;;10.51;55.79;101955.38;5052709;28;20445;-45
2022/04/11 09:30:23;;;;;;;4.77;4.57;;;;;;;10.49;55.30;101951.19;5052545;28;20435;-48
2022/04/11 09:33:02;;;;;;;4.00;3.90;;;;;;;9.82;53.06;101957.59;5052528;28;20431;-49
2022/04/11 09:35:31;;;;;;;4.30;4.07;;;;;;;9.09;54.33;101965.22;5052635;28;20450;-45
2022/04/11 09:38:11;;;;;;;4.50;4.20;;;;;;;8.70;55.35;101964.78;5052026;28;20435;-45
2022/04/11 09:40:43;;;;;;;7.00;4.50;;;;;;;8.05;56.89;101963.34;5052421;28;20431;-45
2022/04/11 09:43:13;;;;;;;4.30;4.00;;;;;;;7.74;58.52;101952.22;5052455;28;20477;-45
2022/04/11 09:45:42;;;;;;;5.83;4.40;;;;;;;7.89;59.75;101959.66;5045578;28;20788;-48
2022/04/11 09:48:16;;;;;;;5.20;4.87;;;;;;;7.86;60.52;101963.47;5043629;28;20455;-49
2022/04/11 09:50:43;;;;;;;4.60;4.20;;;;;;;8.49;59.23;101958.97;5052253;28;20431;-47
2022/04/11 09:53:13;;;;;;;6.40;4.07;;;;;;;8.59;55.25;101962.38;5052246;28;20435;-46
2022/04/11 09:55:42;;;;;;;4.10;3.90;;;;;;;8.81;56.32;101948.56;5052240;28;20427;-49
2022/04/11 09:58:10;;;;;;;4.30;4.10;;;;;;;9.24;56.74;101952.16;5051356;28;20983;-48
2022/04/11 10:00:40;;;;;;;5.40;4.17;;;;;;;9.06;57.95;101957.56;5052203;28;20533;-51
2022/04/11 10:03:08;;;;;;;4.50;4.30;;;;;;;9.61;55.23;101957.16;5052198;28;20474;-45
2022/04/11 10:05:39;;;;;;;5.00;4.60;;;;;;;9.65;55.35;101954.00;5052034;28;20928;-50
2022/04/11 10:08:09;;;;;;;4.70;4.40;;;;;;;9.64;55.42;101951.53;5051465;28;20477;-49
2022/04/11 10:10:39;;;;;;;3.87;3.60;;;;;;;9.23;55.34;101963.78;5051715;28;20428;-45
2022/04/11 10:13:08;;;;;;;4.70;4.40;;;;;;;8.82;56.82;101955.56;5051896;28;20424;-47
2022/04/11 10:15:37;;;;;;;4.10;3.80;;;;;;;8.56;58.53;101952.06;5051927;28;20442;-48
2022/04/11 10:18:06;;;;;;;5.90;4.23;;;;;;;8.24;58.66;101957.88;5051388;28;20458;-47
2022/04/11 10:20:38;;;;;;;4.13;3.90;;;;;;;8.01;60.11;101955.81;5051503;28;20928;-45
2022/04/11 10:23:30;;;;;;;4.57;4.30;;;;;;;8.23;58.43;101966.00;5051981;28;20479;-44
2022/04/11 10:26:00;;;;;;;5.17;4.50;;;;;;;8.72;60.23;101960.16;5052065;28;20804;-47
2022/04/11 10:28:29;;;;;;;5.10;4.80;;;;;;;8.88;57.07;101960.28;5051278;28;20462;-47
2022/04/11 10:31:05;;;;;;;4.27;4.13;;;;;;;8.92;55.27;101955.47;5051483;28;20438;-51
2022/04/11 10:33:41;;;;;;;4.60;4.40;;;;;;;9.33;55.29;101960.03;5051592;28;20869;-47
2022/04/11 10:36:32;;;;;;;4.67;4.27;;;;;;;9.42;54.24;101948.44;5051809;28;20430;-49
2022/04/11 10:39:22;;;;;;;4.20;3.90;;;;;;;9.87;52.68;101947.25;5051138;28;20462;-46
2022/04/11 10:42:12;;;;;;;5.00;4.80;;;;;;;9.90;53.42;101947.78;5051368;28;20812;-45
2022/04/11 10:44:41;;;;;;;4.97;4.50;;;;;;;9.99;52.44;101945.97;5050775;28;20427;-48
2022/04/11 10:47:48;;;;;;;4.70;4.40;;;;;;;10.65;50.09;101942.38;5041270;28;20428;-48
2022/04/11 10:50:31;;;;;;;5.13;4.23;;;;;;;10.57;51.28;101932.56;5051162;28;20559;-45
2022/04/11 10:53:25;;;;;;;4.27;3.93;;;;;;;10.40;49.52;101936.19;5051659;28;20470;-45
2022/04/11 10:56:02;;;;;;;5.30;4.10;;;;;;;10.61;50.78;101949.88;5051631;28;20431;-42
2022/04/11 10:58:44;;;;;;;4.60;4.10;;;;;;;9.74;52.47;101952.19;5050792;28;20466;-46
2022/04/11 11:01:13;;;;;;;4.77;4.33;;;;;;;9.40;53.09;101941.63;5051333;28;20450;-45
2022/04/11 11:03:57;;;;;;;4.23;3.90;;;;;;;9.16;51.03;101947.66;5051587;28;20561;-44
2022/04/11 11:06:25;;;;;;;4.07;3.83;;;;;;;8.93;53.97;101943.81;5051331;28;20593;-46
2022/04/11 11:08:54;;;;;;;5.43;5.13;;;;;;;8.68;54.14;101936.69;5050493;28;20459;-45
2022/04/11 11:11:26;;;;;;;4.80;4.60;;;;;;;8.49;57.09;101942.19;5051369;28;20450;-47
2022/04/11 11:13:56;;;;;;;5.43;5.10;;;;;;;8.31;57.34;101937.72;5051275;28;20432;-50
2022/04/11 11:16:36;;;;;;;4.90;4.50;;;;;;;8.97;57.83;101950.50;5051369;28;20485;-49
2022/04/11 11:19:20;;;;;;;5.03;4.63;;;;;;;9.23;55.88;101940.69;5050736;28;20481;-45
2022/04/11 11:22:04;;;;;;;4.87;4.50;;;;;;;9.91;55.51;101940.63;5051349;28;20443;-48
2022/04/11 11:24:33;;;;;;;5.10;4.57;;;;;;;10.82;55.09;101936.00;5051118;28;20989;-50
2022/04/11 11:27:03;;;;;;;5.10;4.83;;;;;;;11.53;51.48;101931.44;5051380;28;20439;-47
2022/04/11 11:29:32;;;;;;;4.90;4.70;;;;;;;11.95;49.95;101920.41;5050655;28;21213;-47
2022/04/11 11:32:01;;;;;;;4.30;4.07;;;;;;;12.15;48.26;101907.41;5051136;28;20530;-49
2022/04/11 11:34:32;;;;;;;4.53;4.30;;;;;;;12.46;47.69;101915.34;5053823;28;20808;-48